Time;durP1;ratioP1;P1;durP2;ratioP2;P2;SDS_P1;SDS_P2;PMS_P1;PMS_P2;Temp;Humidity;BMP_temperature;BMP_pressure;BME280_temperature;BME280_humidity;BME280_pressure;Samples;Min_cycle;Max_cycle;Signal;HPM_P1;HPM_P2
2023/04/20 00:00:01;;;;;;;5.55;4.47;;;;;;;;;;4973524;28;20050;-75
2023/04/20 00:02:28;;;;;;;6.40;4.40;;;;;;;;;;4972783;28;20117;-75
2023/04/20 00:04:54;;;;;;;7.22;4.75;;;;;;;;;;4972733;28;20068;-75
2023/04/20 00:07:23;;;;;;;7.93;4.50;;;;;;;;;;4989264;28;20095;-75
2023/04/20 00:09:50;;;;;;;6.68;4.65;;;;;;;;;;4989028;28;20062;-75
2023/04/20 00:12:17;;;;;;;6.05;4.20;;;;;;;;;;4988853;28;20057;-75
2023/04/20 00:14:43;;;;;;;7.05;4.93;;;;;;;;;;4972967;28;20058;-75
2023/04/20 00:17:10;;;;;;;5.60;4.47;;;;;;;;;;4989136;28;20046;-75
2023/04/20 00:19:37;;;;;;;8.80;5.65;;;;;;;;;;4988891;28;20065;-75
2023/04/20 00:22:03;;;;;;;5.25;4.05;;;;;;;;;;4989758;28;20050;-75
2023/04/20 00:24:30;;;;;;;9.50;4.75;;;;;;;;;;4988906;28;20065;-75
2023/04/20 00:26:57;;;;;;;5.78;4.75;;;;;;;;;;4989281;28;20069;-75
2023/04/20 00:29:24;;;;;;;8.60;4.80;;;;;;;;;;4989330;28;20073;-75
2023/04/20 00:31:50;;;;;;;6.07;4.75;;;;;;;;;;4972802;28;20047;-75
2023/04/20 00:34:17;;;;;;;8.07;5.05;;;;;;;;;;4988711;28;20068;-75
2023/04/20 00:36:44;;;;;;;8.07;5.00;;;;;;;;;;4972732;28;20518;-75
2023/04/20 00:39:11;;;;;;;6.53;4.43;;;;;;;;;;4988881;28;20050;-75
2023/04/20 00:41:37;;;;;;;5.22;4.72;;;;;;;;;;4988646;28;20137;-76
2023/04/20 00:44:06;;;;;;;7.70;5.00;;;;;;;;;;4988932;28;20062;-76
2023/04/20 00:46:33;;;;;;;9.45;5.32;;;;;;;;;;4988986;28;20050;-75
2023/04/20 00:49:00;;;;;;;8.38;5.65;;;;;;;;;;4988363;28;20058;-76
2023/04/20 00:51:27;;;;;;;5.80;4.88;;;;;;;;;;4972444;28;20058;-76
2023/04/20 00:53:53;;;;;;;6.28;4.32;;;;;;;;;;4972822;28;20066;-75
2023/04/20 00:56:20;;;;;;;6.53;5.00;;;;;;;;;;4969811;28;20065;-76
2023/04/20 00:58:47;;;;;;;5.70;5.03;;;;;;;;;;4972802;28;20550;-75
2023/04/20 01:01:16;;;;;;;6.22;4.65;;;;;;;;;;4990105;28;20065;-75
2023/04/20 01:03:44;;;;;;;5.75;4.70;;;;;;;;;;4977417;28;20105;-75
2023/04/20 01:06:12;;;;;;;5.25;4.40;;;;;;;;;;4972755;28;20823;-75
2023/04/20 01:08:47;;;;;;;7.53;4.88;;;;;;;;;;4990137;28;20065;-74
2023/04/20 01:11:14;;;;;;;5.43;4.55;;;;;;;;;;4972725;28;20417;-75
2023/04/20 01:13:42;;;;;;;7.10;4.63;;;;;;;;;;4956808;28;20499;-75
2023/04/20 01:16:09;;;;;;;8.07;4.82;;;;;;;;;;4960757;28;20054;-75
2023/04/20 01:18:47;;;;;;;7.28;4.90;;;;;;;;;;4956923;28;20058;-75
2023/04/20 01:21:16;;;;;;;7.18;4.68;;;;;;;;;;4972709;28;20054;-74
2023/04/20 01:23:43;;;;;;;6.28;4.60;;;;;;;;;;4972460;28;20062;-75
2023/04/20 01:26:11;;;;;;;8.85;5.05;;;;;;;;;;4966444;28;20124;-74
2023/04/20 01:28:38;;;;;;;5.82;4.82;;;;;;;;;;4975485;28;20054;-74
2023/04/20 01:31:06;;;;;;;6.05;4.75;;;;;;;;;;4975454;28;20062;-75
2023/04/20 01:33:33;;;;;;;7.82;5.47;;;;;;;;;;4970935;28;20097;-75
2023/04/20 01:36:00;;;;;;;7.50;4.95;;;;;;;;;;4975379;28;20058;-75
2023/04/20 01:38:26;;;;;;;7.65;4.35;;;;;;;;;;4964297;28;20058;-74
2023/04/20 01:40:53;;;;;;;8.57;5.15;;;;;;;;;;4991471;28;20062;-75
2023/04/20 01:43:21;;;;;;;6.38;5.07;;;;;;;;;;4991324;28;20057;-75
2023/04/20 01:45:47;;;;;;;5.90;5.18;;;;;;;;;;4991881;28;20058;-74
2023/04/20 01:48:14;;;;;;;6.00;5.15;;;;;;;;;;4991542;28;20068;-74
2023/04/20 01:50:41;;;;;;;9.98;5.22;;;;;;;;;;4947394;28;20061;-74
2023/04/20 01:53:08;;;;;;;7.55;4.90;;;;;;;;;;4955956;28;20055;-74
2023/04/20 01:55:35;;;;;;;5.72;4.95;;;;;;;;;;4956113;28;20395;-74
2023/04/20 01:58:02;;;;;;;10.10;5.00;;;;;;;;;;4956124;28;20062;-74
2023/04/20 02:00:29;;;;;;;9.05;4.70;;;;;;;;;;4982591;28;20533;-74
2023/04/20 02:02:56;;;;;;;7.82;5.50;;;;;;;;;;4975282;28;20458;-74
2023/04/20 02:05:23;;;;;;;8.48;5.35;;;;;;;;;;4975308;28;20502;-74
2023/04/20 02:07:50;;;;;;;9.20;6.20;;;;;;;;;;4975178;28;20058;-74
2023/04/20 02:10:17;;;;;;;10.13;6.35;;;;;;;;;;4974625;28;20077;-73
2023/04/20 02:12:44;;;;;;;8.95;5.18;;;;;;;;;;4974711;28;20049;-76
2023/04/20 02:15:10;;;;;;;12.27;5.47;;;;;;;;;;4959048;28;20061;-76
2023/04/20 02:17:37;;;;;;;8.35;5.82;;;;;;;;;;4974981;28;20058;-76
2023/04/20 02:20:06;;;;;;;9.50;5.57;;;;;;;;;;4958599;28;20064;-75
2023/04/20 02:22:34;;;;;;;11.45;6.13;;;;;;;;;;4958338;28;20271;-75
2023/04/20 02:25:01;;;;;;;9.90;6.22;;;;;;;;;;4959110;28;20073;-76
2023/04/20 02:27:28;;;;;;;8.95;5.47;;;;;;;;;;4958138;28;20062;-76
2023/04/20 02:29:55;;;;;;;7.07;5.47;;;;;;;;;;4983168;28;20065;-76
2023/04/20 02:32:21;;;;;;;7.53;6.00;;;;;;;;;;4990592;28;20101;-75
2023/04/20 02:34:48;;;;;;;7.72;5.43;;;;;;;;;;4990807;28;20054;-76
2023/04/20 02:37:15;;;;;;;6.30;4.78;;;;;;;;;;4974521;28;20058;-76
2023/04/20 02:39:41;;;;;;;9.68;5.47;;;;;;;;;;4990609;28;20062;-76
2023/04/20 02:42:08;;;;;;;7.75;5.75;;;;;;;;;;4973807;28;20061;-75
2023/04/20 02:44:35;;;;;;;11.23;5.78;;;;;;;;;;4990819;28;20054;-75
2023/04/20 02:47:01;;;;;;;8.27;5.45;;;;;;;;;;4990855;28;20050;-75
2023/04/20 02:49:28;;;;;;;11.38;5.68;;;;;;;;;;4990574;28;20056;-76
2023/04/20 02:51:55;;;;;;;8.23;5.20;;;;;;;;;;4990108;28;20073;-75
2023/04/20 02:54:21;;;;;;;9.85;5.10;;;;;;;;;;4974130;28;20527;-74
2023/04/20 02:56:48;;;;;;;9.57;6.53;;;;;;;;;;4989785;28;20062;-75
2023/04/20 02:59:15;;;;;;;7.03;6.18;;;;;;;;;;4974240;28;20069;-75
2023/04/20 03:01:42;;;;;;;11.50;6.78;;;;;;;;;;4989882;28;20069;-75
2023/04/20 03:04:09;;;;;;;10.23;6.35;;;;;;;;;;4990077;28;20068;-75
2023/04/20 03:06:36;;;;;;;12.00;6.60;;;;;;;;;;4989969;28;20120;-75
2023/04/20 03:09:04;;;;;;;8.85;6.03;;;;;;;;;;4990128;28;20562;-75
2023/04/20 03:11:31;;;;;;;10.70;6.20;;;;;;;;;;4989552;28;20062;-75
2023/04/20 03:13:57;;;;;;;7.50;6.10;;;;;;;;;;5003841;28;20054;-74
2023/04/20 03:16:24;;;;;;;10.95;6.55;;;;;;;;;;4990680;28;20073;-75
2023/04/20 03:18:51;;;;;;;7.38;5.40;;;;;;;;;;4989771;28;20089;-74
2023/04/20 03:21:17;;;;;;;10.38;6.10;;;;;;;;;;4989281;28;20061;-75
2023/04/20 03:23:44;;;;;;;6.70;5.53;;;;;;;;;;4989698;28;20065;-75
2023/04/20 03:26:12;;;;;;;8.07;6.18;;;;;;;;;;4989772;28;20058;-75
2023/04/20 03:28:40;;;;;;;10.45;6.28;;;;;;;;;;4989938;28;20054;-75
2023/04/20 03:31:06;;;;;;;8.52;6.28;;;;;;;;;;4973528;28;20060;-74
2023/04/20 03:33:33;;;;;;;8.90;6.68;;;;;;;;;;4989534;28;20058;-75
2023/04/20 03:36:00;;;;;;;6.70;5.78;;;;;;;;;;4989794;28;20058;-74
2023/04/20 03:38:26;;;;;;;6.82;5.90;;;;;;;;;;4973318;28;20046;-75
2023/04/20 03:40:53;;;;;;;8.00;5.88;;;;;;;;;;4989535;28;20132;-75
2023/04/20 03:43:20;;;;;;;7.72;5.97;;;;;;;;;;4989259;28;20054;-75
2023/04/20 03:45:46;;;;;;;6.60;5.38;;;;;;;;;;4989319;28;20053;-75
2023/04/20 03:48:13;;;;;;;7.65;6.25;;;;;;;;;;4989276;28;20497;-75
2023/04/20 03:50:40;;;;;;;9.25;6.60;;;;;;;;;;4990012;28;20058;-75
2023/04/20 03:53:06;;;;;;;7.63;5.70;;;;;;;;;;4988991;28;20057;-75
2023/04/20 03:55:33;;;;;;;8.68;6.65;;;;;;;;;;4990681;28;20245;-75
2023/04/20 03:58:00;;;;;;;12.80;6.28;;;;;;;;;;4989387;28;20395;-75
2023/04/20 04:00:26;;;;;;;9.23;6.57;;;;;;;;;;4989076;28;20053;-75
2023/04/20 04:02:53;;;;;;;8.48;6.10;;;;;;;;;;4989071;28;20043;-75
2023/04/20 04:05:20;;;;;;;9.68;6.28;;;;;;;;;;4989519;28;20445;-75
2023/04/20 04:07:47;;;;;;;9.10;6.20;;;;;;;;;;4990440;28;20605;-75
2023/04/20 04:10:14;;;;;;;9.20;5.72;;;;;;;;;;4989760;28;20058;-77
2023/04/20 04:12:41;;;;;;;7.35;6.30;;;;;;;;;;4982380;28;20051;-77
2023/04/20 04:15:08;;;;;;;8.13;5.70;;;;;;;;;;4981449;28;20054;-77
2023/04/20 04:17:35;;;;;;;7.72;6.20;;;;;;;;;;4984572;28;20057;-75
2023/04/20 04:20:02;;;;;;;7.63;6.15;;;;;;;;;;5000281;28;20572;-73
2023/04/20 04:22:29;;;;;;;8.45;7.00;;;;;;;;;;4993965;28;20050;-73
2023/04/20 04:24:56;;;;;;;10.23;6.80;;;;;;;;;;4989775;28;20050;-73
2023/04/20 04:27:23;;;;;;;11.90;7.22;;;;;;;;;;4972584;28;20058;-74
2023/04/20 04:29:50;;;;;;;7.93;6.22;;;;;;;;;;4987967;28;20058;-73
2023/04/20 04:32:16;;;;;;;8.00;6.75;;;;;;;;;;4956215;28;20129;-74
2023/04/20 04:34:43;;;;;;;8.52;6.78;;;;;;;;;;4989313;28;20077;-73
2023/04/20 04:37:10;;;;;;;9.60;6.80;;;;;;;;;;4956023;28;20097;-74
2023/04/20 04:39:37;;;;;;;8.43;6.25;;;;;;;;;;4978079;28;20057;-74
2023/04/20 04:42:04;;;;;;;9.55;6.57;;;;;;;;;;4967141;28;20129;-73
2023/04/20 04:44:32;;;;;;;9.40;7.18;;;;;;;;;;5005267;28;20054;-74
2023/04/20 04:47:01;;;;;;;8.13;6.60;;;;;;;;;;4992712;28;20058;-73
2023/04/20 04:49:28;;;;;;;9.73;6.68;;;;;;;;;;5005352;28;20573;-73
2023/04/20 04:51:55;;;;;;;9.40;6.82;;;;;;;;;;4993606;28;20047;-73
2023/04/20 04:54:22;;;;;;;8.68;6.88;;;;;;;;;;5010295;28;20058;-74
2023/04/20 04:56:49;;;;;;;8.93;6.10;;;;;;;;;;5011171;28;20399;-73
2023/04/20 04:59:16;;;;;;;9.52;6.72;;;;;;;;;;5002053;28;20068;-74
2023/04/20 05:01:43;;;;;;;10.73;7.00;;;;;;;;;;4980671;28;20054;-74
2023/04/20 05:04:10;;;;;;;9.60;7.35;;;;;;;;;;4967853;28;20050;-74
2023/04/20 05:06:37;;;;;;;9.85;6.75;;;;;;;;;;4998930;28;20697;-74
2023/04/20 05:09:04;;;;;;;9.55;6.57;;;;;;;;;;4991153;28;20069;-74
2023/04/20 05:11:31;;;;;;;11.25;7.60;;;;;;;;;;4974601;28;20062;-74
2023/04/20 05:13:57;;;;;;;11.45;8.07;;;;;;;;;;4974783;28;20062;-74
2023/04/20 05:16:24;;;;;;;10.10;7.00;;;;;;;;;;4983712;28;20062;-76
2023/04/20 05:18:51;;;;;;;10.02;7.35;;;;;;;;;;4975356;28;20054;-76
2023/04/20 05:21:18;;;;;;;9.27;7.07;;;;;;;;;;4990993;28;20490;-75
2023/04/20 05:23:44;;;;;;;8.68;7.05;;;;;;;;;;4939038;28;1179205;-76
2023/04/20 05:26:11;;;;;;;10.68;7.55;;;;;;;;;;4965706;28;20054;-75
2023/04/20 05:28:38;;;;;;;10.45;7.60;;;;;;;;;;4972622;28;20113;-77
2023/04/20 05:31:06;;;;;;;8.70;6.80;;;;;;;;;;4960279;28;20058;-76
2023/04/20 05:33:33;;;;;;;10.48;7.00;;;;;;;;;;4992875;28;20121;-77
2023/04/20 05:36:00;;;;;;;12.90;6.88;;;;;;;;;;4992080;28;20097;-77
2023/04/20 05:38:27;;;;;;;9.30;6.45;;;;;;;;;;4992174;28;20065;-75
2023/04/20 05:40:53;;;;;;;7.75;6.25;;;;;;;;;;4974655;28;20062;-76
2023/04/20 05:43:20;;;;;;;10.02;7.18;;;;;;;;;;4975393;28;20046;-77
2023/04/20 05:45:47;;;;;;;10.45;7.00;;;;;;;;;;4992246;28;20058;-76
2023/04/20 05:48:14;;;;;;;9.88;8.02;;;;;;;;;;4994651;28;20062;-78
2023/04/20 05:50:41;;;;;;;11.65;7.75;;;;;;;;;;4976812;28;20089;-76
2023/04/20 05:53:08;;;;;;;11.60;8.40;;;;;;;;;;4990295;28;20054;-74
2023/04/20 05:55:35;;;;;;;18.63;9.85;;;;;;;;;;4976654;28;20054;-78
2023/04/20 05:58:02;;;;;;;11.38;8.13;;;;;;;;;;4975913;28;20522;-76
2023/04/20 06:00:28;;;;;;;8.50;6.97;;;;;;;;;;4972763;28;20054;-75
2023/04/20 06:02:55;;;;;;;9.35;7.43;;;;;;;;;;4974091;28;20050;-75
2023/04/20 06:05:22;;;;;;;9.35;7.15;;;;;;;;;;4974693;28;20088;-75
2023/04/20 06:07:49;;;;;;;11.88;7.43;;;;;;;;;;4973990;28;20813;-75
2023/04/20 06:10:16;;;;;;;9.70;7.22;;;;;;;;;;4973735;28;20073;-75
2023/04/20 06:12:42;;;;;;;10.27;7.03;;;;;;;;;;4973695;28;20050;-75
2023/04/20 06:15:09;;;;;;;9.23;7.25;;;;;;;;;;4973599;28;20054;-75
2023/04/20 06:17:39;;;;;;;7.00;6.20;;;;;;;;;;4973818;28;20066;-75
2023/04/20 06:20:08;;;;;;;9.30;6.43;;;;;;;;;;4989258;28;20415;-73
2023/04/20 06:22:35;;;;;;;10.20;6.25;;;;;;;;;;4967873;28;20054;-73
2023/04/20 06:25:02;;;;;;;8.35;6.30;;;;;;;;;;4938354;28;20423;-74
2023/04/20 06:27:29;;;;;;;12.13;7.30;;;;;;;;;;4954472;28;20050;-74
2023/04/20 06:29:55;;;;;;;7.60;6.07;;;;;;;;;;4938010;28;20058;-73
2023/04/20 06:32:22;;;;;;;10.40;6.90;;;;;;;;;;4954091;28;20546;-74
2023/04/20 06:34:49;;;;;;;9.05;6.45;;;;;;;;;;4969241;28;20054;-73
2023/04/20 06:37:16;;;;;;;8.98;6.88;;;;;;;;;;4994470;28;20061;-74
2023/04/20 06:39:43;;;;;;;8.27;6.20;;;;;;;;;;5003348;28;20180;-73
2023/04/20 06:42:10;;;;;;;8.98;6.15;;;;;;;;;;4993424;28;20177;-73
2023/04/20 06:44:37;;;;;;;9.07;6.28;;;;;;;;;;4998168;28;20136;-73
2023/04/20 06:47:03;;;;;;;8.43;7.03;;;;;;;;;;5005342;28;20565;-73
2023/04/20 06:49:30;;;;;;;9.25;6.85;;;;;;;;;;5004914;28;20089;-74
2023/04/20 06:51:57;;;;;;;7.85;6.15;;;;;;;;;;4990242;28;20058;-75
2023/04/20 06:54:23;;;;;;;9.05;6.20;;;;;;;;;;4989837;28;20061;-74
2023/04/20 06:56:50;;;;;;;7.50;5.95;;;;;;;;;;4989175;28;20050;-76
2023/04/20 06:59:18;;;;;;;8.27;6.55;;;;;;;;;;4974057;28;20058;-75
2023/04/20 07:01:45;;;;;;;8.18;5.70;;;;;;;;;;5001554;28;20175;-76
2023/04/20 07:04:12;;;;;;;9.18;6.68;;;;;;;;;;4981708;28;20050;-76
2023/04/20 07:06:38;;;;;;;10.45;6.15;;;;;;;;;;4978809;28;20089;-75
2023/04/20 07:09:07;;;;;;;9.57;6.55;;;;;;;;;;4964939;28;20101;-76
2023/04/20 07:11:34;;;;;;;9.63;6.78;;;;;;;;;;4972723;28;20066;-75
2023/04/20 07:14:01;;;;;;;10.13;6.55;;;;;;;;;;4956631;28;20058;-73
2023/04/20 07:16:27;;;;;;;11.25;6.60;;;;;;;;;;4989740;28;20073;-77
2023/04/20 07:18:54;;;;;;;14.45;6.68;;;;;;;;;;4957285;28;20061;-72
2023/04/20 07:21:21;;;;;;;7.85;5.80;;;;;;;;;;4990985;28;20057;-73
2023/04/20 07:23:48;;;;;;;8.73;6.10;;;;;;;;;;4996404;28;20050;-72
2023/04/20 07:26:15;;;;;;;11.75;6.80;;;;;;;;;;4981265;28;20070;-73
2023/04/20 07:28:41;;;;;;;8.30;6.13;;;;;;;;;;4989532;28;20054;-72
2023/04/20 07:31:08;;;;;;;9.20;6.55;;;;;;;;;;4989115;28;20407;-73
2023/04/20 07:33:35;;;;;;;7.38;6.15;;;;;;;;;;4967667;28;20056;-71
2023/04/20 07:36:03;;;;;;;8.68;5.78;;;;;;;;;;4989573;28;20054;-73
2023/04/20 07:38:30;;;;;;;8.95;6.07;;;;;;;;;;4989700;28;20058;-73
2023/04/20 07:40:56;;;;;;;8.43;6.22;;;;;;;;;;4983702;28;20042;-70
2023/04/20 07:43:23;;;;;;;9.55;7.13;;;;;;;;;;4981477;28;20771;-71
2023/04/20 07:45:51;;;;;;;7.78;6.00;;;;;;;;;;4980939;28;20430;-71
2023/04/20 07:48:18;;;;;;;10.02;6.72;;;;;;;;;;4990150;28;20065;-71
2023/04/20 07:50:48;;;;;;;7.88;5.93;;;;;;;;;;4997486;28;20058;-71
2023/04/20 07:53:16;;;;;;;6.25;5.43;;;;;;;;;;4982923;28;20434;-71
2023/04/20 07:55:45;;;;;;;8.88;5.95;;;;;;;;;;4979475;28;20411;-71
2023/04/20 07:58:13;;;;;;;8.68;6.15;;;;;;;;;;4976841;28;20084;-72
2023/04/20 08:00:40;;;;;;;10.27;6.55;;;;;;;;;;4963587;28;20054;-72
2023/04/20 08:03:07;;;;;;;9.73;6.57;;;;;;;;;;4990989;28;20054;-72
2023/04/20 08:05:36;;;;;;;9.75;6.70;;;;;;;;;;4980864;28;20081;-71
2023/04/20 08:08:06;;;;;;;8.98;6.05;;;;;;;;;;4989018;28;20054;-72
2023/04/20 08:10:33;;;;;;;9.50;5.75;;;;;;;;;;4974969;28;20049;-71
2023/04/20 08:13:01;;;;;;;7.95;5.88;;;;;;;;;;4982665;28;20057;-72
2023/04/20 08:15:28;;;;;;;6.70;5.82;;;;;;;;;;4986594;28;20058;-72
2023/04/20 08:17:55;;;;;;;10.60;6.38;;;;;;;;;;4961239;28;20054;-72
2023/04/20 08:20:22;;;;;;;8.82;6.22;;;;;;;;;;4965800;28;20557;-72
2023/04/20 08:22:49;;;;;;;6.13;5.53;;;;;;;;;;4978595;28;20522;-71
2023/04/20 08:25:16;;;;;;;9.43;5.53;;;;;;;;;;4981615;28;20085;-70
2023/04/20 08:27:43;;;;;;;7.68;5.25;;;;;;;;;;4981722;28;20057;-73
2023/04/20 08:30:11;;;;;;;8.10;5.20;;;;;;;;;;4983312;28;20089;-73
2023/04/20 08:32:39;;;;;;;9.05;6.13;;;;;;;;;;5000201;28;20522;-72
2023/04/20 08:35:08;;;;;;;8.48;6.55;;;;;;;;;;4984009;28;20053;-71
2023/04/20 08:37:36;;;;;;;10.18;5.97;;;;;;;;;;4966488;28;20062;-73
2023/04/20 08:40:04;;;;;;;8.60;6.20;;;;;;;;;;4981691;28;20069;-73
2023/04/20 08:42:31;;;;;;;8.95;5.43;;;;;;;;;;4963994;28;20145;-73
2023/04/20 08:44:58;;;;;;;9.80;5.88;;;;;;;;;;4956637;28;20058;-73
2023/04/20 08:47:25;;;;;;;9.45;6.38;;;;;;;;;;4954824;28;20067;-73
2023/04/20 08:49:52;;;;;;;8.65;5.70;;;;;;;;;;4966089;28;20086;-73
2023/04/20 08:52:19;;;;;;;10.60;6.30;;;;;;;;;;4975568;28;20054;-73
2023/04/20 08:54:45;;;;;;;9.57;6.70;;;;;;;;;;4975910;28;20100;-73
2023/04/20 08:57:23;;;;;;;10.57;6.45;;;;;;;;;;4978185;28;20396;-73
2023/04/20 08:59:50;;;;;;;10.10;6.50;;;;;;;;;;4992211;28;20158;-72
2023/04/20 09:02:17;;;;;;;8.68;6.80;;;;;;;;;;4976233;28;20061;-73
2023/04/20 09:04:47;;;;;;;8.85;6.00;;;;;;;;;;4975922;28;20517;-73
2023/04/20 09:07:19;;;;;;;7.90;6.30;;;;;;;;;;4976600;28;20584;-73
2023/04/20 09:09:59;;;;;;;9.52;6.63;;;;;;;;;;4992222;28;20082;-71
2023/04/20 09:12:26;;;;;;;10.02;5.93;;;;;;;;;;4992204;28;20054;-73
2023/04/20 09:14:54;;;;;;;8.57;6.30;;;;;;;;;;4976175;28;20060;-73
2023/04/20 09:17:32;;;;;;;7.47;5.60;;;;;;;;;;4992039;28;20498;-73
2023/04/20 09:19:59;;;;;;;9.73;6.50;;;;;;;;;;4960166;28;20077;-71
2023/04/20 09:22:33;;;;;;;9.77;6.78;;;;;;;;;;4975650;28;20435;-73
2023/04/20 09:25:11;;;;;;;9.75;5.40;;;;;;;;;;4975766;28;20105;-73
2023/04/20 09:27:37;;;;;;;9.07;5.93;;;;;;;;;;4959977;28;20498;-73
2023/04/20 09:30:05;;;;;;;9.43;6.47;;;;;;;;;;4975758;28;20058;-73
2023/04/20 09:32:32;;;;;;;7.13;5.85;;;;;;;;;;4975209;28;20061;-73
2023/04/20 09:34:59;;;;;;;7.20;5.32;;;;;;;;;;4991178;28;20808;-72
2023/04/20 09:37:26;;;;;;;7.03;6.32;;;;;;;;;;4975884;28;20061;-73
2023/04/20 09:39:56;;;;;;;10.82;5.55;;;;;;;;;;4976166;28;20112;-74
2023/04/20 09:42:23;;;;;;;6.32;5.28;;;;;;;;;;4959521;28;20101;-73
2023/04/20 09:44:50;;;;;;;7.47;6.03;;;;;;;;;;4974934;28;20142;-73
2023/04/20 09:47:19;;;;;;;8.65;5.97;;;;;;;;;;4958634;28;20046;-74
2023/04/20 09:49:49;;;;;;;8.98;5.53;;;;;;;;;;4958716;28;20423;-72
2023/04/20 09:52:19;;;;;;;7.65;5.35;;;;;;;;;;4989476;28;20054;-72
2023/04/20 09:54:46;;;;;;;10.00;5.93;;;;;;;;;;4973609;28;20051;-73
2023/04/20 09:57:13;;;;;;;6.85;5.68;;;;;;;;;;4957363;28;20434;-74
2023/04/20 09:59:45;;;;;;;8.93;5.85;;;;;;;;;;4973050;28;20058;-73
2023/04/20 10:02:12;;;;;;;10.18;6.35;;;;;;;;;;4973490;28;20054;-72
2023/04/20 10:04:55;;;;;;;6.50;5.80;;;;;;;;;;4990026;28;20050;-73
2023/04/20 10:07:26;;;;;;;10.90;5.57;;;;;;;;;;4975051;28;20065;-73
2023/04/20 10:10:04;;;;;;;8.57;5.93;;;;;;;;;;4989609;28;20099;-72
2023/04/20 10:12:30;;;;;;;7.05;5.88;;;;;;;;;;4989481;28;20073;-73
2023/04/20 10:14:59;;;;;;;7.22;5.65;;;;;;;;;;4989683;28;20054;-73
2023/04/20 10:17:30;;;;;;;6.53;5.85;;;;;;;;;;4973593;28;20055;-73
2023/04/20 10:19:57;;;;;;;8.75;6.40;;;;;;;;;;4957604;28;20062;-73
2023/04/20 10:22:31;;;;;;;10.98;5.80;;;;;;;;;;4957780;28;20497;-72
2023/04/20 10:24:59;;;;;;;6.93;5.53;;;;;;;;;;4989878;28;20662;-73
2023/04/20 10:27:26;;;;;;;7.97;6.13;;;;;;;;;;4973818;28;20054;-73
2023/04/20 10:29:53;;;;;;;7.05;5.00;;;;;;;;;;4956949;28;20418;-73
2023/04/20 10:32:27;;;;;;;8.35;6.35;;;;;;;;;;4973246;28;20066;-73
2023/04/20 10:35:01;;;;;;;6.65;5.35;;;;;;;;;;4957476;28;20585;-73
2023/04/20 10:37:31;;;;;;;10.52;6.28;;;;;;;;;;4972042;28;20707;-73
2023/04/20 10:39:59;;;;;;;8.57;5.72;;;;;;;;;;4972944;28;20404;-72
2023/04/20 10:42:28;;;;;;;8.70;6.18;;;;;;;;;;4989098;28;20129;-73
2023/04/20 10:44:55;;;;;;;6.82;5.85;;;;;;;;;;4988697;28;20584;-75
2023/04/20 10:47:30;;;;;;;7.35;6.00;;;;;;;;;;4971664;28;20684;-76
2023/04/20 10:50:10;;;;;;;7.55;5.72;;;;;;;;;;4969217;28;20683;-75
2023/04/20 10:52:39;;;;;;;8.98;6.00;;;;;;;;;;4975760;28;20648;-76
2023/04/20 10:55:16;;;;;;;7.15;5.47;;;;;;;;;;4962710;28;20045;-76
2023/04/20 10:57:44;;;;;;;5.07;4.57;;;;;;;;;;4974259;28;20593;-76
2023/04/20 11:00:19;;;;;;;7.82;5.20;;;;;;;;;;4963470;28;20062;-77
2023/04/20 11:02:50;;;;;;;6.80;5.30;;;;;;;;;;4995817;28;20663;-75
2023/04/20 11:05:20;;;;;;;6.32;5.70;;;;;;;;;;4962494;28;20050;-74
2023/04/20 11:07:52;;;;;;;8.93;6.97;;;;;;;;;;4981517;28;20133;-74
2023/04/20 11:10:20;;;;;;;8.82;6.32;;;;;;;;;;4962812;28;20126;-74
2023/04/20 11:12:47;;;;;;;9.23;6.53;;;;;;;;;;4982567;28;20061;-74
2023/04/20 11:15:15;;;;;;;13.80;7.45;;;;;;;;;;4996659;28;20054;-74
2023/04/20 11:17:41;;;;;;;8.05;6.82;;;;;;;;;;4998666;28;20057;-73
2023/04/20 11:20:13;;;;;;;11.65;7.75;;;;;;;;;;4996750;28;20418;-74
2023/04/20 11:22:41;;;;;;;13.15;7.93;;;;;;;;;;4964772;28;20054;-74
2023/04/20 11:25:09;;;;;;;9.15;7.40;;;;;;;;;;4997908;28;20061;-73
2023/04/20 11:27:37;;;;;;;8.82;7.10;;;;;;;;;;4961172;28;20062;-74
2023/04/20 11:30:05;;;;;;;9.70;7.45;;;;;;;;;;4968269;28;20136;-74
2023/04/20 11:32:32;;;;;;;11.38;7.97;;;;;;;;;;4982270;28;20054;-75
2023/04/20 11:35:06;;;;;;;10.23;8.02;;;;;;;;;;4978585;28;20609;-73
2023/04/20 11:37:47;;;;;;;8.25;7.00;;;;;;;;;;4997266;28;20050;-72
2023/04/20 11:40:14;;;;;;;8.55;6.55;;;;;;;;;;4966300;28;20564;-73
2023/04/20 11:42:41;;;;;;;10.02;6.97;;;;;;;;;;4997184;28;20145;-73
2023/04/20 11:45:10;;;;;;;8.75;6.80;;;;;;;;;;4947868;28;20058;-74
2023/04/20 11:47:39;;;;;;;9.10;6.30;;;;;;;;;;4985052;28;20086;-73
2023/04/20 11:50:08;;;;;;;7.30;6.25;;;;;;;;;;4984578;28;20136;-73
2023/04/20 11:52:34;;;;;;;7.05;6.18;;;;;;;;;;4965905;28;20509;-73
2023/04/20 11:55:01;;;;;;;7.07;6.25;;;;;;;;;;4994257;28;20052;-72
2023/04/20 11:57:28;;;;;;;7.57;6.25;;;;;;;;;;4998622;28;20120;-75
2023/04/20 11:59:55;;;;;;;10.90;6.82;;;;;;;;;;4978292;28;20058;-73
2023/04/20 12:02:22;;;;;;;7.40;6.20;;;;;;;;;;4979901;28;20065;-73
2023/04/20 12:04:49;;;;;;;9.27;6.93;;;;;;;;;;4996353;28;20057;-73
2023/04/20 12:07:16;;;;;;;8.38;6.57;;;;;;;;;;4985142;28;20064;-74
2023/04/20 12:09:43;;;;;;;8.32;6.28;;;;;;;;;;4980918;28;20661;-73
2023/04/20 12:12:10;;;;;;;8.60;6.70;;;;;;;;;;4990743;28;20069;-72
2023/04/20 12:14:36;;;;;;;8.82;7.93;;;;;;;;;;4997660;28;20050;-73
2023/04/20 12:17:04;;;;;;;8.55;6.90;;;;;;;;;;4997866;28;20050;-73
2023/04/20 12:19:31;;;;;;;8.98;6.88;;;;;;;;;;4995790;28;20626;-73
2023/04/20 12:21:58;;;;;;;8.15;6.78;;;;;;;;;;4995866;28;20137;-73
2023/04/20 12:24:25;;;;;;;8.38;6.45;;;;;;;;;;4995192;28;20419;-73
2023/04/20 12:26:53;;;;;;;9.48;7.18;;;;;;;;;;4981087;28;20073;-73
2023/04/20 12:29:20;;;;;;;8.27;6.97;;;;;;;;;;4979657;28;20154;-72
2023/04/20 12:31:46;;;;;;;7.50;6.30;;;;;;;;;;4996332;28;20117;-73
2023/04/20 12:34:13;;;;;;;8.63;6.68;;;;;;;;;;4978611;28;20141;-73
2023/04/20 12:36:40;;;;;;;7.88;6.63;;;;;;;;;;4990116;28;20073;-72
2023/04/20 12:39:07;;;;;;;8.85;6.30;;;;;;;;;;4992858;28;20065;-74
2023/04/20 12:41:36;;;;;;;8.23;6.95;;;;;;;;;;4985237;28;20054;-73
2023/04/20 12:44:05;;;;;;;9.85;6.13;;;;;;;;;;4999280;28;20430;-73
2023/04/20 12:46:36;;;;;;;7.75;6.40;;;;;;;;;;5005802;28;20093;-73
2023/04/20 12:49:03;;;;;;;8.07;6.57;;;;;;;;;;4978899;28;20545;-73
2023/04/20 12:51:31;;;;;;;8.23;6.43;;;;;;;;;;4997987;28;20057;-73
2023/04/20 12:53:57;;;;;;;8.35;6.25;;;;;;;;;;4996175;28;20058;-72
2023/04/20 12:56:30;;;;;;;9.23;6.55;;;;;;;;;;4979370;28;20061;-72
2023/04/20 12:58:57;;;;;;;7.78;5.90;;;;;;;;;;4982060;28;20085;-73
2023/04/20 13:01:24;;;;;;;7.38;6.03;;;;;;;;;;4978501;28;20054;-73
2023/04/20 13:03:53;;;;;;;8.90;6.55;;;;;;;;;;4996775;28;20053;-73
2023/04/20 13:06:20;;;;;;;10.77;6.47;;;;;;;;;;4992761;28;20445;-74
2023/04/20 13:08:49;;;;;;;6.82;5.63;;;;;;;;;;4980984;28;20087;-73
2023/04/20 13:11:16;;;;;;;5.75;5.00;;;;;;;;;;4982020;28;20054;-73
2023/04/20 13:13:43;;;;;;;6.85;4.60;;;;;;;;;;4983366;28;20124;-74
2023/04/20 13:16:10;;;;;;;8.70;5.10;;;;;;;;;;4980461;28;20051;-73
2023/04/20 13:18:37;;;;;;;6.75;4.75;;;;;;;;;;4984059;28;20486;-74
2023/04/20 13:21:04;;;;;;;6.80;4.80;;;;;;;;;;4999233;28;20093;-72
2023/04/20 13:23:31;;;;;;;8.07;4.93;;;;;;;;;;4983982;28;20065;-73
2023/04/20 13:26:00;;;;;;;6.22;5.03;;;;;;;;;;5000104;28;20060;-73
2023/04/20 13:28:27;;;;;;;8.18;5.05;;;;;;;;;;4985861;28;20058;-74
2023/04/20 13:30:56;;;;;;;7.20;5.40;;;;;;;;;;5000599;28;20053;-73
2023/04/20 13:33:23;;;;;;;8.32;5.43;;;;;;;;;;4991062;28;20610;-73
2023/04/20 13:35:50;;;;;;;6.80;5.10;;;;;;;;;;4997860;28;20050;-73
2023/04/20 13:38:17;;;;;;;9.05;6.03;;;;;;;;;;4984687;28;20061;-73
2023/04/20 13:40:45;;;;;;;6.22;5.18;;;;;;;;;;5000456;28;20057;-73
2023/04/20 13:43:11;;;;;;;6.45;5.47;;;;;;;;;;4965634;28;20054;-73
2023/04/20 13:45:39;;;;;;;9.88;5.50;;;;;;;;;;4966898;28;20056;-73
2023/04/20 13:48:05;;;;;;;7.60;5.07;;;;;;;;;;4980609;28;20073;-73
2023/04/20 13:50:32;;;;;;;6.93;5.60;;;;;;;;;;4997822;28;20702;-72
2023/04/20 13:53:01;;;;;;;8.18;5.15;;;;;;;;;;4999487;28;20057;-73
2023/04/20 13:55:29;;;;;;;6.85;5.18;;;;;;;;;;4982021;28;20108;-73
2023/04/20 13:57:56;;;;;;;6.63;5.88;;;;;;;;;;5002762;28;20069;-72
2023/04/20 14:00:24;;;;;;;6.75;5.88;;;;;;;;;;4983492;28;20042;-73
2023/04/20 14:03:01;;;;;;;8.27;5.25;;;;;;;;;;4982504;28;20112;-73
2023/04/20 14:05:30;;;;;;;5.68;4.82;;;;;;;;;;4984093;28;20132;-74
2023/04/20 14:08:00;;;;;;;5.95;5.05;;;;;;;;;;4984166;28;20056;-73
2023/04/20 14:10:27;;;;;;;5.88;5.10;;;;;;;;;;4982529;28;20108;-73
2023/04/20 14:12:54;;;;;;;7.60;6.03;;;;;;;;;;4981276;28;20054;-74
2023/04/20 14:15:21;;;;;;;7.20;5.00;;;;;;;;;;4999339;28;20514;-73
2023/04/20 14:17:48;;;;;;;7.47;4.82;;;;;;;;;;4980364;28;20066;-73
2023/04/20 14:20:17;;;;;;;8.40;5.50;;;;;;;;;;5000549;28;20050;-73
2023/04/20 14:22:44;;;;;;;7.03;4.97;;;;;;;;;;4974933;28;20062;-73
2023/04/20 14:25:12;;;;;;;5.82;4.07;;;;;;;;;;4982465;28;20069;-75
2023/04/20 14:27:39;;;;;;;5.38;4.53;;;;;;;;;;4998077;28;20065;-73
2023/04/20 14:30:07;;;;;;;5.57;4.13;;;;;;;;;;4983682;28;20062;-73
2023/04/20 14:32:34;;;;;;;5.20;3.75;;;;;;;;;;4965258;28;20058;-73
2023/04/20 14:35:03;;;;;;;4.55;4.03;;;;;;;;;;4997925;28;20391;-74
2023/04/20 14:37:32;;;;;;;7.38;3.80;;;;;;;;;;4996851;28;20062;-73
2023/04/20 14:39:59;;;;;;;6.07;4.22;;;;;;;;;;4981911;28;20054;-73
2023/04/20 14:42:33;;;;;;;5.45;4.35;;;;;;;;;;5001567;28;20053;-74